createdAt,value
2019-02-28T00:01:40.135Z,6.77
2019-02-28T00:05:42.205Z,5.97
2019-02-28T00:09:44.249Z,4.50
2019-02-28T00:13:46.135Z,6.03
2019-02-28T00:17:48.042Z,4.80
2019-02-28T00:21:49.937Z,7.90
2019-02-28T00:25:52.861Z,6.20
2019-02-28T00:29:54.748Z,7.63
2019-02-28T00:33:56.635Z,5.80
2019-02-28T00:37:58.599Z,9.10
2019-02-28T00:42:00.502Z,6.70
2019-02-28T00:46:02.421Z,4.87
2019-02-28T00:50:05.346Z,5.83
2019-02-28T00:54:08.684Z,6.20
2019-02-28T00:58:10.904Z,8.17
2019-02-28T01:02:12.884Z,8.60
2019-02-28T01:06:14.768Z,11.47
2019-02-28T01:10:17.082Z,11.13
2019-02-28T01:14:19.005Z,11.27
2019-02-28T01:18:20.955Z,7.07
2019-02-28T01:22:22.859Z,11.60
2019-02-28T01:26:24.763Z,10.93
2019-02-28T01:30:26.738Z,11.55
2019-02-28T01:34:32.061Z,8.97
2019-02-28T01:38:32.704Z,5.80
2019-02-28T01:42:34.673Z,8.50
2019-02-28T01:46:36.572Z,8.13
2019-02-28T01:50:38.501Z,7.93
2019-02-28T01:54:41.378Z,7.07
2019-02-28T01:58:43.280Z,7.57
2019-02-28T02:02:45.202Z,8.43
2019-02-28T02:06:47.456Z,9.43
2019-02-28T02:10:49.448Z,6.80
2019-02-28T02:14:53.045Z,6.10
2019-02-28T02:18:54.959Z,5.20
2019-02-28T02:22:56.890Z,6.92
2019-02-28T02:26:58.810Z,8.73
2019-02-28T02:36:23.839Z,6.30
2019-02-28T02:40:25.759Z,5.43
2019-02-28T02:44:31.774Z,7.70
2019-02-28T02:48:31.275Z,6.10
2019-02-28T02:52:33.200Z,5.83
2019-02-28T02:56:40.668Z,8.23
2019-02-28T03:00:38.719Z,8.80
2019-02-28T03:04:40.672Z,12.00
2019-02-28T03:08:42.583Z,7.17
2019-02-28T03:12:44.668Z,7.80
2019-02-28T03:16:46.582Z,9.00
2019-02-28T03:20:48.506Z,10.13
2019-02-28T03:24:52.072Z,5.50
2019-02-28T03:28:55.265Z,8.33
2019-02-28T03:32:57.166Z,6.50
2019-02-28T03:36:59.078Z,6.53
2019-02-28T03:41:01.446Z,9.80
2019-02-28T03:45:03.836Z,10.40
2019-02-28T03:49:11.015Z,9.43
2019-02-28T03:53:09.411Z,5.40
2019-02-28T03:57:11.395Z,7.53
2019-02-28T04:01:13.376Z,9.73
2019-02-28T04:05:15.290Z,9.83
2019-02-28T04:09:17.207Z,9.05
2019-02-28T04:13:20.318Z,6.87
2019-02-28T04:17:22.317Z,7.47
2019-02-28T04:21:24.234Z,8.05
2019-02-28T04:25:26.284Z,8.65
2019-02-28T04:29:31.124Z,6.87
2019-02-28T04:33:37.352Z,8.55
2019-02-28T04:37:35.416Z,7.23
2019-02-28T04:41:37.332Z,8.00
2019-02-28T04:45:39.238Z,9.40
2019-02-28T04:49:41.144Z,7.17
2019-02-28T04:53:43.072Z,9.63
2019-02-28T04:57:44.994Z,9.13
2019-02-28T05:01:46.924Z,8.60
2019-02-28T05:05:48.876Z,7.87
2019-02-28T05:09:50.780Z,8.93
2019-02-28T05:13:52.704Z,10.03
2019-02-28T05:17:55.850Z,7.43
2019-02-28T05:21:58.247Z,9.50
2019-02-28T05:26:00.332Z,11.17
2019-02-28T05:30:02.245Z,8.18
2019-02-28T05:34:04.494Z,9.53
2019-02-28T05:38:06.414Z,8.77
2019-02-28T05:42:08.328Z,6.10
2019-02-28T05:46:10.303Z,8.23
2019-02-28T05:50:16.598Z,8.03
2019-02-28T05:54:17.235Z,13.47
2019-02-28T05:58:20.854Z,7.47
2019-02-28T06:02:23.348Z,10.10
2019-02-28T06:06:26.629Z,9.88
2019-02-28T06:10:29.500Z,7.87
2019-02-28T06:14:31.410Z,10.93
2019-02-28T06:18:33.600Z,10.20
2019-02-28T06:22:36.300Z,8.80
2019-02-28T06:26:38.326Z,9.50
2019-02-28T06:30:41.452Z,14.63
2019-02-28T06:34:43.841Z,9.77
2019-02-28T06:38:45.766Z,20.93
2019-02-28T06:42:47.795Z,29.60
2019-02-28T06:46:49.690Z,17.87
2019-02-28T06:50:51.593Z,17.30
2019-02-28T06:54:54.340Z,17.67
2019-02-28T06:58:56.412Z,11.07
2019-02-28T07:02:58.334Z,14.67
2019-02-28T07:07:00.261Z,16.50
2019-02-28T07:11:02.181Z,16.42
2019-02-28T07:15:04.836Z,19.63
2019-02-28T07:19:06.755Z,17.60
2019-02-28T07:23:08.682Z,19.10
2019-02-28T07:27:10.608Z,15.90
2019-02-28T07:31:12.518Z,20.93
2019-02-28T07:35:14.786Z,22.70
2019-02-28T07:39:16.761Z,24.33
2019-02-28T07:43:19.371Z,31.02
2019-02-28T07:47:21.328Z,24.57
2019-02-28T07:51:26.172Z,34.85
2019-02-28T07:55:27.343Z,30.63
2019-02-28T07:59:30.466Z,28.70
2019-02-28T08:03:32.414Z,25.05
2019-02-28T08:07:34.329Z,29.45
2019-02-28T08:11:36.255Z,28.23
2019-02-28T08:15:38.323Z,30.63
2019-02-28T08:19:40.250Z,22.30
2019-02-28T08:23:42.145Z,27.27
2019-02-28T08:27:44.140Z,28.83
2019-02-28T08:31:46.053Z,29.20
2019-02-28T08:35:49.031Z,25.37
2019-02-28T08:39:50.946Z,26.70
2019-02-28T08:43:52.871Z,27.13
2019-02-28T08:47:56.764Z,25.67
2019-02-28T08:51:58.412Z,25.70
2019-02-28T08:56:00.315Z,23.00
2019-02-28T09:00:02.259Z,25.20
2019-02-28T09:04:05.857Z,28.80
2019-02-28T09:08:07.811Z,29.17
2019-02-28T09:12:09.864Z,27.37
2019-02-28T09:16:11.779Z,28.37
2019-02-28T09:20:17.499Z,24.97
2019-02-28T09:24:19.456Z,25.33
2019-02-28T09:28:21.386Z,26.37
2019-02-28T09:32:23.356Z,25.17
2019-02-28T09:36:25.272Z,30.70
2019-02-28T09:40:29.460Z,27.25
2019-02-28T09:44:31.754Z,30.17
2019-02-28T09:48:37.218Z,31.10
2019-02-28T09:52:41.253Z,26.20
2019-02-28T09:56:44.505Z,31.30
2019-02-28T10:00:49.289Z,29.67
2019-02-28T10:04:50.021Z,28.43
2019-02-28T10:08:51.947Z,34.13
2019-02-28T10:12:53.877Z,29.97
2019-02-28T10:16:55.787Z,31.23
2019-02-28T10:20:58.970Z,35.20
2019-02-28T10:25:03.553Z,31.73
2019-02-28T10:29:07.450Z,33.90
2019-02-28T10:33:09.234Z,37.57
2019-02-28T10:37:11.147Z,34.07
2019-02-28T10:41:15.373Z,33.90
2019-02-28T10:45:17.669Z,32.97
2019-02-28T10:49:21.094Z,34.53
2019-02-28T10:53:23.368Z,34.57
2019-02-28T10:57:25.282Z,34.27
2019-02-28T11:01:27.208Z,34.65
2019-02-28T11:05:35.065Z,30.30
2019-02-28T11:09:36.995Z,31.50
2019-02-28T11:13:57.723Z,35.77
2019-02-28T11:18:09.760Z,43.83
2019-02-28T11:22:11.992Z,36.27
2019-02-28T11:26:13.986Z,33.57
2019-02-28T11:30:31.663Z,29.70
2019-02-28T11:34:34.667Z,33.40
2019-02-28T11:38:36.594Z,30.93
2019-02-28T11:42:38.566Z,36.03
2019-02-28T11:46:40.509Z,32.63
2019-02-28T11:50:44.944Z,33.93
2019-02-28T11:54:46.332Z,29.83
2019-02-28T11:58:51.476Z,32.93
2019-02-28T12:02:53.522Z,31.50
2019-02-28T12:06:57.384Z,29.80
2019-02-28T12:11:01.925Z,32.40
2019-02-28T12:15:05.987Z,29.03
2019-02-28T12:19:07.755Z,28.67
2019-02-28T12:23:09.756Z,28.73
2019-02-28T12:27:11.688Z,26.20
2019-02-28T12:31:14.091Z,28.97
2019-02-28T12:35:16.191Z,29.97
2019-02-28T12:39:18.155Z,28.10
2019-02-28T12:43:20.075Z,30.87
2019-02-28T12:47:22.776Z,29.70
2019-02-28T12:51:24.709Z,34.23
2019-02-28T12:55:26.629Z,29.40
2019-02-28T12:59:28.556Z,23.70
2019-02-28T13:03:30.468Z,24.40
2019-02-28T13:07:33.915Z,30.25
2019-02-28T13:11:36.543Z,27.90
2019-02-28T13:15:38.531Z,25.50
2019-02-28T13:19:40.468Z,29.42
2019-02-28T13:23:42.455Z,26.30
2019-02-28T13:27:45.242Z,33.80
2019-02-28T13:31:49.049Z,26.13
2019-02-28T13:35:51.000Z,24.47
2019-02-28T13:39:53.000Z,26.47
2019-02-28T13:43:59.220Z,28.53
2019-02-28T13:47:58.548Z,27.93
2019-02-28T13:52:00.541Z,24.43
2019-02-28T13:56:04.935Z,26.60
2019-02-28T14:00:14.493Z,23.33
2019-02-28T14:04:19.395Z,23.60
2019-02-28T14:08:20.322Z,21.97
2019-02-28T14:12:22.417Z,24.37
2019-02-28T14:16:26.932Z,25.32
2019-02-28T14:20:28.486Z,26.50
2019-02-28T14:24:32.015Z,26.02
2019-02-28T14:28:35.613Z,25.73
2019-02-28T14:32:38.684Z,24.80
2019-02-28T14:36:41.824Z,24.80
2019-02-28T14:40:45.201Z,23.73
2019-02-28T14:44:47.117Z,21.47
2019-02-28T14:48:49.044Z,23.90
2019-02-28T14:52:54.295Z,29.07
2019-02-28T14:56:56.220Z,30.67
2019-02-28T15:00:58.149Z,28.30
2019-02-28T15:05:00.057Z,29.07
2019-02-28T15:09:01.993Z,34.67
2019-02-28T15:13:05.875Z,30.95
2019-02-28T15:17:07.816Z,32.30
2019-02-28T15:21:09.717Z,32.97
2019-02-28T15:25:21.016Z,31.05
2019-02-28T15:29:23.384Z,37.57
2019-02-28T15:33:27.459Z,32.07
2019-02-28T15:37:33.373Z,26.30
2019-02-28T15:41:35.016Z,36.98
2019-02-28T15:45:37.542Z,33.98
2019-02-28T15:49:41.768Z,31.63
2019-02-28T15:53:43.168Z,29.47
2019-02-28T15:57:45.352Z,30.40
2019-02-28T16:01:47.300Z,28.40
2019-02-28T16:05:49.239Z,30.73
2019-02-28T16:09:54.161Z,32.27
2019-02-28T16:13:57.465Z,32.03
2019-02-28T16:17:58.950Z,30.20
2019-02-28T16:22:01.664Z,27.40
2019-02-28T16:26:04.060Z,33.80
2019-02-28T16:30:13.711Z,29.40
2019-02-28T16:34:15.730Z,32.17
2019-02-28T16:38:17.677Z,32.20
2019-02-28T16:42:19.694Z,33.42
2019-02-28T16:46:21.797Z,29.50
2019-02-28T16:50:23.794Z,28.37
2019-02-28T16:54:27.788Z,30.77
2019-02-28T16:58:29.374Z,29.93
2019-02-28T17:02:31.305Z,28.10
2019-02-28T17:06:35.658Z,26.57
2019-02-28T17:10:40.052Z,22.83
2019-02-28T17:14:41.795Z,27.10
2019-02-28T17:18:43.721Z,33.47
2019-02-28T17:22:45.660Z,29.90
2019-02-28T17:26:49.236Z,23.23
2019-02-28T17:30:56.768Z,27.40
2019-02-28T17:34:59.036Z,34.63
2019-02-28T17:39:01.609Z,35.63
2019-02-28T17:43:05.212Z,26.67
2019-02-28T17:47:20.223Z,28.00
2019-02-28T17:51:37.886Z,27.63
2019-02-28T17:55:53.184Z,45.50
2019-02-28T18:00:16.140Z,30.53
2019-02-28T18:04:46.413Z,33.13
2019-02-28T18:09:12.636Z,34.97
2019-02-28T18:13:44.551Z,35.50
2019-02-28T18:18:28.204Z,28.00
2019-02-28T18:22:52.870Z,84.93
2019-02-28T18:27:36.691Z,31.97
2019-02-28T18:31:38.676Z,38.00
2019-02-28T18:35:41.380Z,19.67
2019-02-28T18:39:44.595Z,36.77
2019-02-28T18:43:46.930Z,30.93
2019-02-28T18:47:48.874Z,66.23
2019-02-28T18:51:51.873Z,44.03
2019-02-28T18:55:53.871Z,71.13
2019-02-28T18:59:55.806Z,53.47
2019-02-28T19:03:57.740Z,43.38
2019-02-28T19:07:59.772Z,33.50
2019-02-28T19:12:01.821Z,31.57
2019-02-28T19:16:04.233Z,33.03
2019-02-28T19:20:10.165Z,33.33
2019-02-28T19:24:12.095Z,34.37
2019-02-28T19:28:14.008Z,37.73
2019-02-28T19:32:15.967Z,32.77
2019-02-28T19:36:17.910Z,29.97
2019-02-28T19:40:19.914Z,30.30
2019-02-28T19:44:21.883Z,32.65
2019-02-28T19:48:23.794Z,33.70
2019-02-28T19:52:25.823Z,31.00
2019-02-28T19:56:27.864Z,31.10
2019-02-28T20:00:29.872Z,39.33
2019-02-28T20:04:31.814Z,37.35
2019-02-28T20:08:33.726Z,34.78
2019-02-28T20:12:35.731Z,31.50
2019-02-28T20:16:37.739Z,33.50
2019-02-28T20:20:39.673Z,31.13
2019-02-28T20:24:41.685Z,28.90
2019-02-28T20:28:43.606Z,30.10
2019-02-28T20:32:45.791Z,23.63
2019-02-28T20:36:47.986Z,26.77
2019-02-28T20:40:49.971Z,23.27
2019-02-28T20:44:52.930Z,25.67
2019-02-28T20:48:54.862Z,26.00
2019-02-28T20:52:57.884Z,21.50
2019-02-28T20:56:59.820Z,25.10
2019-02-28T21:01:01.839Z,20.63
2019-02-28T21:05:04.744Z,19.83
2019-02-28T21:09:07.928Z,23.17
2019-02-28T21:13:11.458Z,18.87
2019-02-28T21:17:13.372Z,19.87
2019-02-28T21:21:15.288Z,21.00
2019-02-28T21:25:18.887Z,16.53
2019-02-28T21:29:20.860Z,17.73
2019-02-28T21:33:22.771Z,15.93
2019-02-28T21:37:24.940Z,15.38
2019-02-28T21:41:26.914Z,15.55
2019-02-28T21:45:30.000Z,15.43
2019-02-28T21:49:32.951Z,17.30
2019-02-28T21:53:34.869Z,17.00
2019-02-28T21:57:36.788Z,15.50
2019-02-28T22:01:38.763Z,15.10
2019-02-28T22:05:40.679Z,12.87
2019-02-28T22:09:42.574Z,15.80
2019-02-28T22:13:44.488Z,14.27
2019-02-28T22:17:46.398Z,12.60
2019-02-28T22:21:48.320Z,11.63
2019-02-28T22:25:50.247Z,15.00
2019-02-28T22:29:52.141Z,13.03
2019-02-28T22:33:59.885Z,16.17
2019-02-28T22:38:01.794Z,14.83
2019-02-28T22:42:03.777Z,19.37
2019-02-28T22:46:05.705Z,16.20
2019-02-28T22:50:09.911Z,14.50
2019-02-28T22:54:11.819Z,15.73
2019-02-28T22:58:13.733Z,14.27
2019-02-28T23:02:15.781Z,14.90
2019-02-28T23:06:17.749Z,19.70
2019-02-28T23:10:20.176Z,13.53
2019-02-28T23:14:22.082Z,15.37
2019-02-28T23:18:23.982Z,18.87
2019-02-28T23:22:25.893Z,16.25
2019-02-28T23:26:27.968Z,17.65
2019-02-28T23:31:09.243Z,13.05
2019-02-28T23:35:16.317Z,16.77
2019-02-28T23:39:18.221Z,17.63
2019-02-28T23:43:20.143Z,12.63
2019-02-28T23:47:22.047Z,16.57
2019-02-28T23:51:23.946Z,17.32
2019-02-28T23:55:25.846Z,14.07
2019-02-28T23:59:27.769Z,15.93
